Reno, NV

5:47 PM PDT on May 29, 2015 (GMT -0700)
Hidden Lake | | Change Station
CLOSE
Current Station
Personal Weather Station
Location: Reno, NV
Elevation: 4652 ft
Nearby Weather Stations

Elev 4652 ft 39.37 °N, 119.75 °W | Updated 2 minutes ago

Partly Cloudy
Partly Cloudy
83.7 °F
Feels Like 81 °F
N
7.3
Wind Variable Wind from WSW

Today
High -- | Low -- °F
--% Chance of Precip.
Yesterday
High -- | Low -- °F
Precip. -- in
5:35 AM 8:17 PM
Waxing Gibbous, 87% visible
Pressure 29.81 in
Visibility 10.0 miles
Clouds Few 11000 ft
Few 16000 ft
Mostly Cloudy 20000 ft
Overcast 25000 ft
Heat Index 81 °F
Dew Point 38 °F
Humidity 20%
Rainfall 0.00 in
Snow Depth Not available.
UV 1 out of 12
Pollen 6.90 out of 12
Air Quality Not available.
Flu Activity Sporadic
METAR KRNO 292355Z 27012KT 10SM FEW110 FEW160 BKN200 OVC250 31/M03 A2997 RMK AO2 SLP094 T03111028 10322 20250 56013

More Conditions Fewer Conditions

Pressure 29.81 in
Visibility 10.0 miles
Clouds Few 11000 ft
Few 16000 ft
Mostly Cloudy 20000 ft
Overcast 25000 ft
Heat Index 81 °F
Dew Point 38 °F
Humidity 20%
Rainfall 0.00 in
Snow Depth Not available.
UV 1 out of 12
Pollen 6.90 out of 12
Air Quality Not available.
Flu Activity Sporadic
METAR KRNO 292355Z 27012KT 10SM FEW110 FEW160 BKN200 OVC250 31/M03 A2997 RMK AO2 SLP094 T03111028 10322 20250 56013

More Conditions Fewer Conditions

10-Day Weather Forecast

Almanac

Astronomy

May. 29, 2015 Rise Set
Actual Time
Civil Twilight
Nautical Twilight
Astronomical Twilight
Moon
Length of Visible Light
Length of Day
Tomorrow will be .
, % of the Moon is Illuminated

Today's Extremes

State Highs State Lows

Community

WunderPhotos

Upload Photos

1,825,411 photos uploaded!

WunderBlogs® & News

Nearby

Air Quality

  Air Quality AQ Index Pollutant
Not available.

Snow Depth

Station Depth Elevation

Earthquake Activity

City Distance Mag. Time & Date
Minimum magnitude displayed is 2.5.

Coastal Water Temperatures

Place Temperature

Stations

Nearby Weather Stations

Station Location Temp. Windchill Dew Point Humidity Wind Precip. Elev Updated Type